Birch River, West Virginia
Current Conditions -  °F | °C
As of 9:55 AM on Monday 24 Nov 2014 (Local Time) from KW22 Reporting Station
Few Clouds Few Clouds  
Wind Chill: 64°   Ceiling: Unl
Heat Index: 64°   Visibility: 10mi
Dew Point: 46°   Wind: 21mph
Humidity: 52%   Direction: 200°SSW
Pressure: 29.54"   Gusts: 38mph
Location:  38.5°N, 80.75°W
Report Text: KW22 241455Z AUTO 20018G33KT 10SM FEW048 18/08 A2954 RMK AO2
Loading
Personal Weather Stations






























Interactive Weather Map New forecast layout! Learn more

10-Day Weather Forecast

Advertisements
Track Severe Weather on mobile